createdAt,value
2023-09-17T00:00:34.189Z,9.55
2023-09-17T00:02:57.317Z,9.50
2023-09-17T00:05:20.241Z,9.77
2023-09-17T00:07:44.222Z,9.95
2023-09-17T00:10:07.271Z,10.32
2023-09-17T00:12:29.979Z,10.13
2023-09-17T00:14:52.751Z,9.37
2023-09-17T00:17:15.612Z,9.55
2023-09-17T00:19:38.369Z,10.02
2023-09-17T00:22:02.269Z,10.45
2023-09-17T00:24:26.136Z,10.45
2023-09-17T00:26:49.157Z,10.70
2023-09-17T00:29:11.776Z,10.43
2023-09-17T00:31:35.835Z,10.23
2023-09-17T00:33:58.437Z,10.35
2023-09-17T00:36:21.396Z,10.25
2023-09-17T00:38:44.120Z,10.70
2023-09-17T00:41:07.111Z,10.55
2023-09-17T00:43:31.446Z,10.30
2023-09-17T00:45:54.638Z,10.35
2023-09-17T00:48:17.593Z,10.52
2023-09-17T00:50:41.097Z,9.60
2023-09-17T00:53:05.299Z,10.40
2023-09-17T00:55:31.023Z,10.13
2023-09-17T00:57:53.851Z,10.00
2023-09-17T01:00:18.011Z,10.40
2023-09-17T01:02:41.850Z,9.87
2023-09-17T01:05:06.187Z,10.30
2023-09-17T01:07:29.506Z,9.93
2023-09-17T01:09:52.143Z,9.75
2023-09-17T01:12:15.431Z,9.90
2023-09-17T01:14:39.167Z,10.33
2023-09-17T01:17:07.466Z,10.15
2023-09-17T01:19:33.863Z,10.48
2023-09-17T01:22:07.906Z,10.10
2023-09-17T01:24:47.070Z,10.00
2023-09-17T01:27:12.149Z,10.17
2023-09-17T01:29:40.073Z,9.77
2023-09-17T01:32:04.893Z,10.07
2023-09-17T01:34:31.340Z,10.07
2023-09-17T01:36:58.884Z,10.25
2023-09-17T01:39:25.191Z,10.00
2023-09-17T01:41:48.234Z,10.05
2023-09-17T01:44:11.615Z,10.23
2023-09-17T01:46:36.297Z,10.18
2023-09-17T01:49:00.690Z,9.68
2023-09-17T01:51:23.838Z,9.90
2023-09-17T01:53:46.973Z,10.70
2023-09-17T01:56:13.090Z,10.02
2023-09-17T01:58:36.352Z,9.52
2023-09-17T02:00:59.175Z,10.32
2023-09-17T02:03:21.916Z,10.20
2023-09-17T02:05:44.633Z,9.18
2023-09-17T02:08:07.312Z,10.23
2023-09-17T02:10:30.076Z,9.88
2023-09-17T02:12:53.468Z,10.15
2023-09-17T02:15:16.175Z,8.80
2023-09-17T02:17:39.608Z,9.88
2023-09-17T02:20:03.658Z,9.15
2023-09-17T02:22:26.344Z,9.77
2023-09-17T02:24:49.698Z,9.48
2023-09-17T02:27:12.421Z,9.40
2023-09-17T02:29:35.499Z,8.75
2023-09-17T02:31:59.031Z,9.38
2023-09-17T02:34:21.719Z,8.88
2023-09-17T02:36:44.297Z,9.45
2023-09-17T02:39:09.550Z,9.00
2023-09-17T02:41:32.412Z,9.15
2023-09-17T02:43:55.920Z,8.68
2023-09-17T02:46:19.580Z,8.45
2023-09-17T02:48:43.097Z,9.10
2023-09-17T02:51:05.684Z,8.60
2023-09-17T02:53:28.461Z,8.68
2023-09-17T02:55:51.143Z,9.23
2023-09-17T02:58:14.467Z,9.10
2023-09-17T03:00:40.053Z,9.02
2023-09-17T03:03:03.559Z,9.50
2023-09-17T03:05:26.621Z,8.98
2023-09-17T03:07:51.404Z,9.02
2023-09-17T03:10:14.894Z,9.75
2023-09-17T03:12:39.765Z,9.45
2023-09-17T03:15:02.784Z,9.10
2023-09-17T03:17:25.670Z,9.38
2023-09-17T03:19:49.467Z,9.80
2023-09-17T03:22:12.817Z,8.88
2023-09-17T03:24:35.998Z,9.18
2023-09-17T03:26:58.944Z,9.10
2023-09-17T03:29:21.820Z,8.85
2023-09-17T03:31:46.786Z,9.48
2023-09-17T03:34:10.023Z,9.10
2023-09-17T03:36:36.554Z,9.23
2023-09-17T03:39:01.041Z,9.37
2023-09-17T03:41:24.672Z,8.85
2023-09-17T03:43:47.377Z,9.27
2023-09-17T03:46:10.896Z,9.23
2023-09-17T03:48:34.029Z,8.98
2023-09-17T03:50:57.483Z,8.93
2023-09-17T03:53:20.435Z,8.85
2023-09-17T03:55:46.235Z,9.48
2023-09-17T03:58:10.391Z,8.50
2023-09-17T04:00:37.392Z,8.95
2023-09-17T04:03:01.510Z,8.43
2023-09-17T04:05:25.405Z,9.00
2023-09-17T04:07:48.842Z,9.15
2023-09-17T04:10:13.433Z,8.95
2023-09-17T04:12:37.394Z,8.98
2023-09-17T04:15:00.163Z,8.97
2023-09-17T04:17:22.877Z,9.07
2023-09-17T04:19:45.767Z,9.27
2023-09-17T04:22:08.367Z,8.70
2023-09-17T04:24:33.117Z,9.45
2023-09-17T04:26:55.911Z,9.10
2023-09-17T04:29:18.588Z,8.70
2023-09-17T04:31:41.377Z,9.27
2023-09-17T04:34:04.806Z,8.98
2023-09-17T04:36:27.410Z,9.63
2023-09-17T04:38:50.126Z,8.93
2023-09-17T04:41:12.748Z,9.10
2023-09-17T04:43:35.416Z,8.82
2023-09-17T04:45:59.374Z,9.00
2023-09-17T04:48:28.634Z,9.30
2023-09-17T04:50:51.327Z,8.70
2023-09-17T04:53:14.151Z,8.80
2023-09-17T04:55:39.826Z,8.88
2023-09-17T04:58:03.316Z,9.15
2023-09-17T05:00:26.477Z,9.75
2023-09-17T05:02:50.453Z,9.07
2023-09-17T05:05:14.214Z,8.90
2023-09-17T05:07:39.323Z,9.10
2023-09-17T05:10:01.976Z,9.10
2023-09-17T05:12:25.031Z,9.98
2023-09-17T05:14:48.151Z,9.40
2023-09-17T05:17:10.925Z,9.05
2023-09-17T05:19:34.052Z,9.23
2023-09-17T05:21:57.320Z,8.65
2023-09-17T05:24:20.238Z,9.10
2023-09-17T05:26:42.929Z,8.70
2023-09-17T05:29:05.663Z,9.10
2023-09-17T05:31:29.130Z,9.65
2023-09-17T05:33:52.202Z,9.85
2023-09-17T05:36:15.083Z,9.63
2023-09-17T05:38:38.443Z,9.33
2023-09-17T05:41:02.328Z,10.10
2023-09-17T05:43:25.991Z,9.32
2023-09-17T05:45:50.228Z,9.48
2023-09-17T05:48:15.209Z,9.65
2023-09-17T05:50:38.380Z,9.13
2023-09-17T05:53:01.148Z,9.00
2023-09-17T05:55:23.927Z,9.57
2023-09-17T05:57:46.704Z,9.18
2023-09-17T06:00:10.032Z,8.95
2023-09-17T06:02:38.619Z,8.93
2023-09-17T06:05:01.481Z,9.00
2023-09-17T06:07:24.474Z,8.65
2023-09-17T06:09:48.128Z,9.10
2023-09-17T06:12:10.799Z,9.20
2023-09-17T06:14:34.417Z,9.23
2023-09-17T06:16:58.438Z,9.50
2023-09-17T06:19:21.861Z,10.18
2023-09-17T06:21:44.849Z,9.70
2023-09-17T06:24:07.909Z,9.38
2023-09-17T06:26:30.970Z,10.00
2023-09-17T06:28:53.684Z,9.57
2023-09-17T06:31:16.904Z,10.38
2023-09-17T06:33:40.341Z,9.52
2023-09-17T06:36:05.016Z,10.32
2023-09-17T06:38:28.108Z,10.40
2023-09-17T06:40:51.182Z,10.40
2023-09-17T06:43:14.467Z,9.77
2023-09-17T06:45:37.191Z,10.35
2023-09-17T06:47:59.875Z,10.20
2023-09-17T06:50:22.509Z,9.30
2023-09-17T06:52:45.301Z,10.43
2023-09-17T06:55:07.995Z,10.27
2023-09-17T06:57:30.800Z,9.68
2023-09-17T06:59:53.631Z,9.57
2023-09-17T07:02:16.314Z,10.13
2023-09-17T07:04:39.012Z,10.30
2023-09-17T07:07:02.053Z,9.93
2023-09-17T07:09:25.694Z,10.43
2023-09-17T07:11:48.474Z,10.55
2023-09-17T07:14:11.545Z,10.17
2023-09-17T07:16:34.513Z,9.82
2023-09-17T07:18:57.100Z,10.18
2023-09-17T07:21:19.823Z,10.50
2023-09-17T07:23:43.937Z,10.27
2023-09-17T07:26:07.851Z,9.70
2023-09-17T07:28:31.313Z,10.65
2023-09-17T07:30:56.359Z,10.30
2023-09-17T07:33:19.029Z,10.93
2023-09-17T07:35:41.860Z,10.27
2023-09-17T07:38:04.662Z,10.30
2023-09-17T07:40:27.803Z,9.77
2023-09-17T07:42:50.426Z,10.63
2023-09-17T07:45:14.467Z,10.75
2023-09-17T07:47:37.515Z,10.80
2023-09-17T07:50:00.192Z,10.73
2023-09-17T07:52:22.957Z,10.35
2023-09-17T07:54:45.731Z,10.57
2023-09-17T07:57:10.555Z,11.20
2023-09-17T07:59:33.299Z,11.18
2023-09-17T08:01:56.128Z,11.30
2023-09-17T08:04:18.950Z,11.00
2023-09-17T08:06:41.779Z,11.25
2023-09-17T08:09:07.315Z,10.70
2023-09-17T08:11:30.774Z,10.70
2023-09-17T08:13:53.906Z,11.17
2023-09-17T08:16:17.582Z,11.00
2023-09-17T08:18:40.417Z,11.30
2023-09-17T08:21:05.021Z,10.90
2023-09-17T08:23:28.606Z,11.40
2023-09-17T08:26:12.012Z,11.20
2023-09-17T08:28:57.286Z,11.00
2023-09-17T08:31:39.969Z,11.23
2023-09-17T08:34:22.809Z,11.43
2023-09-17T08:36:48.366Z,11.93
2023-09-17T08:39:12.441Z,11.27
2023-09-17T08:41:38.290Z,10.95
2023-09-17T08:44:01.264Z,10.90
2023-09-17T08:46:27.456Z,11.00
2023-09-17T08:48:51.250Z,11.45
2023-09-17T08:51:16.853Z,11.20
2023-09-17T08:53:51.625Z,11.25
2023-09-17T08:56:18.389Z,11.60
2023-09-17T08:58:49.616Z,10.85
2023-09-17T09:01:16.524Z,11.48
2023-09-17T09:03:41.060Z,11.47
2023-09-17T09:06:05.083Z,11.65
2023-09-17T09:08:29.309Z,11.65
2023-09-17T09:10:52.186Z,11.55
2023-09-17T09:13:15.201Z,11.95
2023-09-17T09:15:38.032Z,11.60
2023-09-17T09:18:01.208Z,11.65
2023-09-17T09:20:24.012Z,11.60
2023-09-17T09:22:46.876Z,11.95
2023-09-17T09:25:10.813Z,12.45
2023-09-17T09:27:33.870Z,11.47
2023-09-17T09:29:56.573Z,12.13
2023-09-17T09:32:19.791Z,11.50
2023-09-17T09:34:43.640Z,11.60
2023-09-17T09:37:07.898Z,11.80
2023-09-17T09:39:31.619Z,11.67
2023-09-17T09:41:54.408Z,11.40
2023-09-17T09:44:17.333Z,12.05
2023-09-17T09:46:40.077Z,12.40
2023-09-17T09:49:03.296Z,11.80
2023-09-17T09:51:26.796Z,12.17
2023-09-17T09:53:50.010Z,12.63
2023-09-17T09:56:13.398Z,12.43
2023-09-17T09:58:37.422Z,11.85
2023-09-17T10:01:04.096Z,11.00
2023-09-17T10:03:26.772Z,11.93
2023-09-17T10:05:49.975Z,11.38
2023-09-17T10:08:54.897Z,11.70
2023-09-17T10:11:18.225Z,11.23
2023-09-17T10:13:42.071Z,11.05
2023-09-17T10:16:05.313Z,11.27
2023-09-17T10:18:30.208Z,11.40
2023-09-17T10:20:54.313Z,11.07
2023-09-17T10:23:18.195Z,11.30
2023-09-17T10:25:45.344Z,11.63
2023-09-17T10:28:11.479Z,11.40
2023-09-17T10:30:34.843Z,10.95
2023-09-17T10:32:59.114Z,11.05
2023-09-17T10:35:22.218Z,11.10
2023-09-17T10:37:45.433Z,11.68
2023-09-17T10:40:13.528Z,11.60
2023-09-17T10:42:37.193Z,12.00
2023-09-17T10:45:03.411Z,11.70
2023-09-17T10:47:27.177Z,11.10
2023-09-17T10:49:50.136Z,11.95
2023-09-17T10:52:13.321Z,11.20
2023-09-17T10:54:36.297Z,12.02
2023-09-17T10:57:02.502Z,11.93
2023-09-17T10:59:25.616Z,11.75
2023-09-17T11:01:50.724Z,11.57
2023-09-17T11:04:18.129Z,11.90
2023-09-17T11:06:43.356Z,11.65
2023-09-17T11:09:06.450Z,11.55
2023-09-17T11:11:31.078Z,12.00
2023-09-17T11:13:54.626Z,12.02
2023-09-17T11:16:19.639Z,11.80
2023-09-17T11:18:46.451Z,12.02
2023-09-17T11:21:11.707Z,11.93
2023-09-17T11:23:39.138Z,11.07
2023-09-17T11:26:01.974Z,11.77
2023-09-17T11:28:36.400Z,12.47
2023-09-17T11:31:00.595Z,12.13
2023-09-17T11:33:24.296Z,12.13
2023-09-17T11:35:48.959Z,11.98
2023-09-17T11:38:12.041Z,12.45
2023-09-17T11:40:34.871Z,12.20
2023-09-17T11:42:58.928Z,11.50
2023-09-17T11:45:22.002Z,12.07
2023-09-17T11:47:45.694Z,11.57
2023-09-17T11:50:10.055Z,11.80
2023-09-17T11:52:34.401Z,12.00
2023-09-17T11:55:09.170Z,12.13
2023-09-17T11:57:31.915Z,12.27
2023-09-17T11:59:56.972Z,11.63
2023-09-17T12:02:20.841Z,12.00
2023-09-17T12:04:45.470Z,12.43
2023-09-17T12:07:13.368Z,12.57
2023-09-17T12:10:02.564Z,12.80
2023-09-17T12:12:26.330Z,12.38
2023-09-17T12:14:49.976Z,13.05
2023-09-17T12:17:12.954Z,12.60
2023-09-17T12:19:35.908Z,12.30
2023-09-17T12:22:00.903Z,12.88
2023-09-17T12:24:37.108Z,12.68
2023-09-17T12:27:33.724Z,12.45
2023-09-17T12:29:57.105Z,12.20
2023-09-17T12:32:22.935Z,12.27
2023-09-17T12:34:45.692Z,12.27
2023-09-17T12:37:08.932Z,12.40
2023-09-17T12:39:31.920Z,13.05
2023-09-17T12:41:54.546Z,12.07
2023-09-17T12:44:18.361Z,12.15
2023-09-17T12:46:41.344Z,12.52
2023-09-17T12:49:04.658Z,13.15
2023-09-17T12:51:27.389Z,13.82
2023-09-17T12:53:50.410Z,13.60
2023-09-17T12:56:13.617Z,13.55
2023-09-17T12:58:36.458Z,13.45
2023-09-17T13:01:10.880Z,13.80
2023-09-17T13:03:33.843Z,13.20
2023-09-17T13:05:58.283Z,12.60
2023-09-17T13:08:21.283Z,13.23
2023-09-17T13:10:44.028Z,13.00
2023-09-17T13:13:07.106Z,12.82
2023-09-17T13:15:29.848Z,13.20
2023-09-17T13:17:52.530Z,13.53
2023-09-17T13:20:15.408Z,13.70
2023-09-17T13:22:40.910Z,13.93
2023-09-17T13:25:03.840Z,13.63
2023-09-17T13:27:30.588Z,13.82
2023-09-17T13:29:56.422Z,14.20
2023-09-17T13:32:20.292Z,13.57
2023-09-17T13:34:44.143Z,13.38
2023-09-17T13:37:07.207Z,13.52
2023-09-17T13:39:29.929Z,14.30
2023-09-17T13:41:57.362Z,13.50
2023-09-17T13:44:20.022Z,13.38
2023-09-17T13:46:48.867Z,13.23
2023-09-17T13:49:11.460Z,13.18
2023-09-17T13:51:34.124Z,15.02
2023-09-17T13:53:56.772Z,13.30
2023-09-17T13:56:19.517Z,13.48
2023-09-17T13:58:42.174Z,13.30
2023-09-17T14:01:07.149Z,13.98
2023-09-17T14:03:29.986Z,14.23
2023-09-17T14:05:52.682Z,13.50
2023-09-17T14:08:15.331Z,12.95
2023-09-17T14:10:38.558Z,13.52
2023-09-17T14:13:05.591Z,13.32
2023-09-17T14:15:28.532Z,13.25
2023-09-17T14:17:51.255Z,13.37
2023-09-17T14:20:14.267Z,13.50
2023-09-17T14:22:38.498Z,13.77
2023-09-17T14:25:01.292Z,12.93
2023-09-17T14:27:24.110Z,13.20
2023-09-17T14:29:46.772Z,12.83
2023-09-17T14:32:09.592Z,13.02
2023-09-17T14:34:32.504Z,12.65
2023-09-17T14:36:55.176Z,12.90
2023-09-17T14:39:17.827Z,13.35
2023-09-17T14:41:40.840Z,12.70
2023-09-17T14:44:03.751Z,13.00
2023-09-17T14:46:26.509Z,12.52
2023-09-17T14:48:50.247Z,12.80
2023-09-17T14:51:13.064Z,12.77
2023-09-17T14:53:35.633Z,12.33
2023-09-17T14:55:58.579Z,12.63
2023-09-17T14:58:21.468Z,12.20
2023-09-17T15:00:44.356Z,12.90
2023-09-17T15:03:07.211Z,12.60
2023-09-17T15:05:30.623Z,12.27
2023-09-17T15:07:53.366Z,12.45
2023-09-17T15:10:19.191Z,12.65
2023-09-17T15:12:41.775Z,12.60
2023-09-17T15:15:08.405Z,12.77
2023-09-17T15:17:31.441Z,12.13
2023-09-17T15:19:54.319Z,12.18
2023-09-17T15:22:17.247Z,13.02
2023-09-17T15:24:39.853Z,12.23
2023-09-17T15:27:02.763Z,12.82
2023-09-17T15:29:25.876Z,13.10
2023-09-17T15:31:49.328Z,12.82
2023-09-17T15:34:14.256Z,12.68
2023-09-17T15:36:42.468Z,12.73
2023-09-17T15:39:06.433Z,13.07
2023-09-17T15:41:30.087Z,12.63
2023-09-17T15:43:52.854Z,13.32
2023-09-17T15:46:16.047Z,13.52
2023-09-17T15:48:39.008Z,12.90
2023-09-17T15:51:03.367Z,13.13
2023-09-17T15:53:26.191Z,13.63
2023-09-17T15:55:49.148Z,13.02
2023-09-17T15:58:12.744Z,13.15
2023-09-17T16:00:35.431Z,15.02
2023-09-17T16:02:58.493Z,14.15
2023-09-17T16:05:22.454Z,13.27
2023-09-17T16:07:51.309Z,13.63
2023-09-17T16:10:14.199Z,13.73
2023-09-17T16:12:36.902Z,13.40
2023-09-17T16:14:59.809Z,13.40
2023-09-17T16:17:22.488Z,14.10
2023-09-17T16:19:55.713Z,13.38
2023-09-17T16:22:18.659Z,13.88
2023-09-17T16:24:41.706Z,13.38
2023-09-17T16:27:05.671Z,13.70
2023-09-17T16:29:28.417Z,13.33
2023-09-17T16:31:52.281Z,13.35
2023-09-17T16:34:15.278Z,13.82
2023-09-17T16:36:38.027Z,14.20
2023-09-17T16:39:00.927Z,14.60
2023-09-17T16:41:23.826Z,13.80
2023-09-17T16:43:46.694Z,14.38
2023-09-17T16:46:09.406Z,14.55
2023-09-17T16:48:32.188Z,14.02
2023-09-17T16:50:55.174Z,15.07
2023-09-17T16:53:19.485Z,14.03
2023-09-17T16:55:42.940Z,15.45
2023-09-17T16:58:06.244Z,15.75
2023-09-17T17:00:29.420Z,15.95
2023-09-17T17:02:52.495Z,17.55
2023-09-17T17:05:15.378Z,17.47
2023-09-17T17:07:37.985Z,19.27
2023-09-17T17:10:00.941Z,19.05
2023-09-17T17:12:23.848Z,18.23
2023-09-17T17:14:48.928Z,19.42
2023-09-17T17:17:11.918Z,19.77
2023-09-17T17:19:34.719Z,20.25
2023-09-17T17:21:57.507Z,20.05
2023-09-17T17:24:20.716Z,20.35
2023-09-17T17:26:43.426Z,20.45
2023-09-17T17:29:06.333Z,20.57
2023-09-17T17:31:29.187Z,19.65
2023-09-17T17:33:54.448Z,19.48
2023-09-17T17:36:17.612Z,19.00
2023-09-17T17:38:40.754Z,19.83
2023-09-17T17:41:03.496Z,18.87
2023-09-17T17:43:26.544Z,18.20
2023-09-17T17:45:49.556Z,17.73
2023-09-17T17:48:33.836Z,17.58
2023-09-17T17:50:57.530Z,18.33
2023-09-17T17:53:20.445Z,17.33
2023-09-17T17:55:43.201Z,17.05
2023-09-17T17:58:05.830Z,15.82
2023-09-17T18:00:28.788Z,16.13
2023-09-17T18:02:51.636Z,16.35
2023-09-17T18:05:14.921Z,16.03
2023-09-17T18:07:39.569Z,15.65
2023-09-17T18:10:05.780Z,16.73
2023-09-17T18:12:28.835Z,15.77
2023-09-17T18:14:51.585Z,15.35
2023-09-17T18:17:14.312Z,15.80
2023-09-17T18:19:37.337Z,15.30
2023-09-17T18:22:00.044Z,15.38
2023-09-17T18:24:24.940Z,16.88
2023-09-17T18:26:47.900Z,15.77
2023-09-17T18:29:11.619Z,15.07
2023-09-17T18:31:34.345Z,15.60
2023-09-17T18:33:57.023Z,15.65
2023-09-17T18:36:20.802Z,15.43
2023-09-17T18:38:45.330Z,15.68
2023-09-17T18:41:08.376Z,15.13
2023-09-17T18:43:31.521Z,15.27
2023-09-17T18:45:54.506Z,15.35
2023-09-17T18:48:19.068Z,15.02
2023-09-17T18:50:42.616Z,15.25
2023-09-17T18:53:05.730Z,15.53
2023-09-17T18:55:28.782Z,15.73
2023-09-17T18:57:51.650Z,16.38
2023-09-17T19:00:16.617Z,15.02
2023-09-17T19:02:41.113Z,15.48
2023-09-17T19:05:05.487Z,15.40
2023-09-17T19:07:28.206Z,15.65
2023-09-17T19:09:50.983Z,17.05
2023-09-17T19:12:13.911Z,16.25
2023-09-17T19:14:41.373Z,16.63
2023-09-17T19:17:07.420Z,16.00
2023-09-17T19:19:31.529Z,15.30
2023-09-17T19:21:54.478Z,15.82
2023-09-17T19:24:17.758Z,15.30
2023-09-17T19:26:40.918Z,14.68
2023-09-17T19:29:04.513Z,13.90
2023-09-17T19:31:27.604Z,15.35
2023-09-17T19:33:50.864Z,14.57
2023-09-17T19:36:14.128Z,13.73
2023-09-17T19:38:37.124Z,14.15
2023-09-17T19:41:01.449Z,14.67
2023-09-17T19:43:24.293Z,14.65
2023-09-17T19:45:53.030Z,15.07
2023-09-17T19:48:15.961Z,14.88
2023-09-17T19:50:39.544Z,14.55
2023-09-17T19:53:02.252Z,14.87
2023-09-17T19:55:26.075Z,15.10
2023-09-17T19:57:49.637Z,15.20
2023-09-17T20:00:13.482Z,14.10
2023-09-17T20:02:38.783Z,14.57
2023-09-17T20:05:01.667Z,14.40
2023-09-17T20:07:25.838Z,14.25
2023-09-17T20:09:48.592Z,14.90
2023-09-17T20:12:11.267Z,14.23
2023-09-17T20:14:33.925Z,14.52
2023-09-17T20:16:56.592Z,14.57
2023-09-17T20:19:19.267Z,15.13
2023-09-17T20:21:41.906Z,14.80
2023-09-17T20:24:07.228Z,14.77
2023-09-17T20:26:29.865Z,15.20
2023-09-17T20:28:52.792Z,15.07
2023-09-17T20:31:15.620Z,14.32
2023-09-17T20:33:38.414Z,14.13
2023-09-17T20:36:01.515Z,13.68
2023-09-17T20:38:24.293Z,14.90
2023-09-17T20:40:47.579Z,14.53
2023-09-17T20:43:10.436Z,13.77
2023-09-17T20:45:33.184Z,14.05
2023-09-17T20:47:57.413Z,14.02
2023-09-17T20:51:03.712Z,13.60
2023-09-17T20:53:28.519Z,13.27
2023-09-17T20:55:54.172Z,12.45
2023-09-17T20:58:17.563Z,13.48
2023-09-17T21:00:40.223Z,12.90
2023-09-17T21:03:03.176Z,12.90
2023-09-17T21:05:26.361Z,13.03
2023-09-17T21:07:49.048Z,12.90
2023-09-17T21:10:12.518Z,13.30
2023-09-17T21:12:35.221Z,12.63
2023-09-17T21:14:57.916Z,13.15
2023-09-17T21:17:20.737Z,13.30
2023-09-17T21:19:43.808Z,13.38
2023-09-17T21:22:08.444Z,14.00
2023-09-17T21:24:32.011Z,13.30
2023-09-17T21:26:54.762Z,13.82
2023-09-17T21:29:17.529Z,14.23
2023-09-17T21:31:40.557Z,13.50
2023-09-17T21:34:04.321Z,13.98
2023-09-17T21:36:27.020Z,13.05
2023-09-17T21:38:49.974Z,13.40
2023-09-17T21:41:13.371Z,12.70
2023-09-17T21:43:36.336Z,12.90
2023-09-17T21:45:59.107Z,12.90
2023-09-17T21:48:21.958Z,13.20
2023-09-17T21:50:44.844Z,12.27
2023-09-17T21:53:07.490Z,12.30
2023-09-17T21:55:30.385Z,12.35
2023-09-17T21:57:53.077Z,12.52
2023-09-17T22:00:25.069Z,11.57
2023-09-17T22:02:49.244Z,11.55
2023-09-17T22:05:12.056Z,11.17
2023-09-17T22:07:34.940Z,11.35
2023-09-17T22:09:57.630Z,10.77
2023-09-17T22:12:20.524Z,11.57
2023-09-17T22:14:43.228Z,11.50
2023-09-17T22:17:06.602Z,11.37
2023-09-17T22:19:30.616Z,11.65
2023-09-17T22:21:53.563Z,11.93
2023-09-17T22:24:17.033Z,11.32
2023-09-17T22:26:40.225Z,10.73
2023-09-17T22:29:03.476Z,10.73
2023-09-17T22:31:27.023Z,11.07
2023-09-17T22:33:51.638Z,10.80
2023-09-17T22:36:14.391Z,10.15
2023-09-17T22:38:40.533Z,10.48
2023-09-17T22:41:03.218Z,10.23
2023-09-17T22:43:25.874Z,10.10
2023-09-17T22:45:48.560Z,10.00
2023-09-17T22:48:11.177Z,9.95
2023-09-17T22:50:34.170Z,9.80
2023-09-17T22:52:56.853Z,9.20
2023-09-17T22:55:19.566Z,9.02
2023-09-17T22:57:42.217Z,8.88
2023-09-17T23:00:09.094Z,9.27
2023-09-17T23:02:31.814Z,9.90
2023-09-17T23:04:54.778Z,9.80
2023-09-17T23:07:17.733Z,9.07
2023-09-17T23:09:40.418Z,9.15
2023-09-17T23:12:03.722Z,9.05
2023-09-17T23:14:26.497Z,9.00
2023-09-17T23:16:49.598Z,9.00
2023-09-17T23:19:13.155Z,9.60
2023-09-17T23:21:37.442Z,8.90
2023-09-17T23:24:00.168Z,8.77
2023-09-17T23:26:24.803Z,8.75
2023-09-17T23:28:47.601Z,9.37
2023-09-17T23:31:12.047Z,9.25
2023-09-17T23:33:35.091Z,9.10
2023-09-17T23:35:57.855Z,9.38
2023-09-17T23:38:20.494Z,9.25
2023-09-17T23:40:43.102Z,9.37
2023-09-17T23:43:05.743Z,8.85
2023-09-17T23:45:28.439Z,9.07
2023-09-17T23:47:51.182Z,9.02
2023-09-17T23:50:15.440Z,8.63
2023-09-17T23:52:39.872Z,8.33
2023-09-17T23:55:02.632Z,8.65
2023-09-17T23:57:26.972Z,8.55
2023-09-17T23:59:49.707Z,8.63
